Time;durP1;ratioP1;P1;durP2;ratioP2;P2;SDS_P1;SDS_P2;PMS_P1;PMS_P2;Temp;Humidity;BMP_temperature;BMP_pressure;BME280_temperature;BME280_humidity;BME280_pressure;Samples;Min_cycle;Max_cycle;Signal;HPM_P1;HPM_P2
2021/05/22 00:00:21;;;;;;;;;;;;;;;7.02;100.00;95375.75;1278579;23;19904;-61
2021/05/22 00:00:52;;;;;;;;;;;;;;;7.05;100.00;95377.88;1278849;23;20310;-61
2021/05/22 00:01:23;;;;;;;;;;;;;;;7.02;100.00;95383.72;1278779;23;19954;-61
2021/05/22 00:01:53;;;;;;;;;;;;;;;7.04;100.00;95390.34;1278894;23;19904;-61
2021/05/22 00:02:23;;;;;;;;;;;;;;;7.07;100.00;95385.59;1278964;23;19905;-61
2021/05/22 00:02:53;;;;;;;;;;;;;;;7.03;100.00;95390.63;1278930;23;19962;-61
2021/05/22 00:03:24;;;;;;;;;;;;;;;7.01;100.00;95392.72;1278907;23;20319;-61
2021/05/22 00:03:55;;;;;;;;;;;;;;;7.03;100.00;95385.31;1278473;23;19904;-61
2021/05/22 00:04:25;;;;;;;;;;;;;;;7.04;100.00;95385.03;1278522;23;19904;-62
2021/05/22 00:04:56;;;;;;;;;;;;;;;7.07;100.00;95381.06;1278655;23;19928;-61
2021/05/22 00:05:26;;;;;;;;;;;;;;;7.03;100.00;95380.00;1278644;23;19904;-61
2021/05/22 00:05:56;;;;;;;;;;;;;;;7.02;100.00;95375.75;1278992;23;19904;-61
2021/05/22 00:06:26;;;;;;;;;;;;;;;6.99;100.00;95374.41;1278965;23;20229;-62
2021/05/22 00:06:57;;;;;;;;;;;;;;;6.98;100.00;95362.19;1278845;23;19911;-61
2021/05/22 00:07:27;;;;;;;;;;;;;;;7.02;100.00;95367.78;1278656;23;19905;-62
2021/05/22 00:07:57;;;;;;;;;;;;;;;7.04;100.00;95357.69;1278913;23;19954;-61
2021/05/22 00:08:28;;;;;;;;;;;;;;;7.04;100.00;95353.16;1278861;23;20298;-61
2021/05/22 00:08:58;;;;;;;;;;;;;;;7.08;100.00;95349.97;1278978;23;19936;-61
2021/05/22 00:09:28;;;;;;;;;;;;;;;7.08;100.00;95340.16;1278914;23;20229;-61
2021/05/22 00:09:58;;;;;;;;;;;;;;;7.09;100.00;95332.97;1279068;23;19950;-61
2021/05/22 00:10:29;;;;;;;;;;;;;;;7.09;100.00;95340.94;1278779;23;19915;-61
2021/05/22 00:10:59;;;;;;;;;;;;;;;7.09;100.00;95339.09;1278942;23;19904;-61
2021/05/22 00:11:29;;;;;;;;;;;;;;;7.06;100.00;95338.81;1278923;23;19932;-61
2021/05/22 00:11:59;;;;;;;;;;;;;;;7.07;100.00;95335.13;1278985;23;20230;-61
2021/05/22 00:12:30;;;;;;;;;;;;;;;7.02;100.00;95335.91;1278801;23;20277;-61
2021/05/22 00:13:01;;;;;;;;;;;;;;;7.00;100.00;95322.84;1278543;23;19911;-60
2021/05/22 00:13:31;;;;;;;;;;;;;;;7.03;100.00;95314.38;1278613;23;19931;-61
2021/05/22 00:14:02;;;;;;;;;;;;;;;7.03;100.00;95321.53;1278648;23;19904;-61
2021/05/22 00:14:32;;;;;;;;;;;;;;;7.03;100.00;95313.56;1278454;23;19912;-61
2021/05/22 00:15:03;;;;;;;;;;;;;;;7.01;100.00;95305.88;1278460;23;19954;-61
2021/05/22 00:15:34;;;;;;;;;;;;;;;7.00;100.00;95298.94;1278536;23;20304;-61
2021/05/22 00:16:04;;;;;;;;;;;;;;;6.97;100.00;95317.28;1278529;23;19908;-61
2021/05/22 00:16:35;;;;;;;;;;;;;;;6.97;100.00;95304.00;1278365;23;19939;-61
2021/05/22 00:17:05;;;;;;;;;;;;;;;6.94;100.00;95297.34;1279006;23;19904;-61
2021/05/22 00:17:35;;;;;;;;;;;;;;;6.96;100.00;95305.88;1278687;23;20273;-61
2021/05/22 00:18:05;;;;;;;;;;;;;;;7.00;100.00;95300.81;1279051;23;19904;-61
2021/05/22 00:18:36;;;;;;;;;;;;;;;7.00;100.00;95301.59;1278832;23;19928;-61
2021/05/22 00:19:06;;;;;;;;;;;;;;;6.96;100.00;95305.03;1278999;23;19907;-61
2021/05/22 00:19:36;;;;;;;;;;;;;;;6.92;100.00;95307.44;1278824;23;19904;-61
2021/05/22 00:20:07;;;;;;;;;;;;;;;6.90;100.00;95314.88;1278919;23;19904;-61
2021/05/22 00:20:37;;;;;;;;;;;;;;;6.91;100.00;95313.00;1278879;23;19971;-61
2021/05/22 00:21:07;;;;;;;;;;;;;;;6.93;100.00;95321.53;1278983;23;19916;-61
2021/05/22 00:21:38;;;;;;;;;;;;;;;6.89;100.00;95331.88;1278842;23;19920;-61
2021/05/22 00:22:08;;;;;;;;;;;;;;;6.92;100.00;95335.88;1278472;23;19908;-61
2021/05/22 00:22:40;;;;;;;;;;;;;;;6.91;100.00;95342.22;1278383;23;19946;-61
2021/05/22 00:23:11;;;;;;;;;;;;;;;6.92;100.00;95343.84;1278577;23;20315;-61
2021/05/22 00:23:42;;;;;;;;;;;;;;;6.95;100.00;95348.63;1278555;23;20356;-61
2021/05/22 00:24:12;;;;;;;;;;;;;;;6.89;100.00;95350.47;1278928;23;19908;-61
2021/05/22 00:24:42;;;;;;;;;;;;;;;6.90;100.00;95341.44;1278786;23;19926;-61
2021/05/22 00:25:13;;;;;;;;;;;;;;;6.88;100.00;95338.25;1278941;23;19933;-61
2021/05/22 00:25:43;;;;;;;;;;;;;;;6.89;100.00;95336.38;1278919;23;19896;-61
2021/05/22 00:26:13;;;;;;;;;;;;;;;6.90;100.00;95343.28;1278960;23;19930;-61
2021/05/22 00:26:44;;;;;;;;;;;;;;;6.88;100.00;95334.78;1278933;23;19897;-61
2021/05/22 00:27:14;;;;;;;;;;;;;;;6.87;100.00;95335.88;1278970;23;19908;-61
2021/05/22 00:27:44;;;;;;;;;;;;;;;6.89;100.00;95334.53;1278809;23;19900;-61
2021/05/22 00:28:14;;;;;;;;;;;;;;;6.86;100.00;95324.44;1278910;23;19911;-61
2021/05/22 00:28:45;;;;;;;;;;;;;;;6.89;100.00;95315.13;1278908;23;19927;-61
2021/05/22 00:29:15;;;;;;;;;;;;;;;6.92;100.00;95314.63;1278851;23;20215;-61
2021/05/22 00:29:45;;;;;;;;;;;;;;;6.93;100.00;95311.69;1278920;23;19928;-61
2021/05/22 00:30:16;;;;;;;;;;;;;;;6.92;100.00;95304.00;1278884;23;19901;-61
2021/05/22 00:30:46;;;;;;;;;;;;;;;6.88;100.00;95306.38;1278936;23;19979;-61
2021/05/22 00:31:16;;;;;;;;;;;;;;;6.86;100.00;95289.09;1278805;23;19965;-61
2021/05/22 00:31:46;;;;;;;;;;;;;;;6.86;100.00;95289.09;1278894;23;19930;-61
2021/05/22 00:32:17;;;;;;;;;;;;;;;6.86;100.00;95289.09;1278913;23;20322;-60
2021/05/22 00:32:47;;;;;;;;;;;;;;;6.90;100.00;95287.50;1278798;23;19938;-61
2021/05/22 00:33:17;;;;;;;;;;;;;;;6.91;100.00;95283.78;1278820;23;19908;-61
2021/05/22 00:33:48;;;;;;;;;;;;;;;6.88;100.00;95282.47;1278798;23;20273;-61
2021/05/22 00:34:18;;;;;;;;;;;;;;;6.85;100.00;95287.50;1278812;23;19908;-60
2021/05/22 00:34:48;;;;;;;;;;;;;;;6.84;100.00;95292.00;1278899;23;19978;-61
2021/05/22 00:35:18;;;;;;;;;;;;;;;6.82;100.00;95296.00;1278810;23;19908;-61
2021/05/22 00:35:50;;;;;;;;;;;;;;;6.83;100.00;95303.72;1278953;23;19923;-63
2021/05/22 00:36:20;;;;;;;;;;;;;;;6.82;100.00;95314.59;1278864;23;19984;-61
2021/05/22 00:36:50;;;;;;;;;;;;;;;6.79;100.00;95310.59;1278923;23;19902;-61
2021/05/22 00:37:20;;;;;;;;;;;;;;;6.80;100.00;95316.69;1278823;23;19928;-61
2021/05/22 00:37:51;;;;;;;;;;;;;;;6.80;100.00;95322.81;1278727;23;19904;-61
2021/05/22 00:38:21;;;;;;;;;;;;;;;6.80;100.00;95328.13;1279255;23;20306;-61
2021/05/22 00:38:51;;;;;;;;;;;;;;;6.79;100.00;95337.16;1279322;23;19935;-63
2021/05/22 00:39:22;;;;;;;;;;;;;;;6.82;100.00;95343.81;1279204;23;19959;-61
2021/05/22 00:39:52;;;;;;;;;;;;;;;6.80;100.00;95338.75;1279238;23;19904;-61
2021/05/22 00:40:22;;;;;;;;;;;;;;;6.82;100.00;95343.81;1279301;23;20215;-61
2021/05/22 00:40:52;;;;;;;;;;;;;;;6.80;100.00;95336.09;1279294;23;19947;-61
2021/05/22 00:41:23;;;;;;;;;;;;;;;6.75;100.00;95326.25;1279211;23;19904;-61
2021/05/22 00:41:53;;;;;;;;;;;;;;;6.73;100.00;95328.38;1279233;23;20318;-61
2021/05/22 00:42:23;;;;;;;;;;;;;;;6.74;100.00;95314.03;1279337;23;19908;-61
2021/05/22 00:42:53;;;;;;;;;;;;;;;6.73;100.00;95304.47;1279140;23;20258;-61
2021/05/22 00:43:24;;;;;;;;;;;;;;;6.70;100.00;95298.88;1279223;23;19911;-61
2021/05/22 00:43:54;;;;;;;;;;;;;;;6.71;100.00;95281.91;1279303;23;19911;-61
2021/05/22 00:44:30;;;;;;;;;;;;;;;6.69;100.00;95276.84;1279278;23;19904;-61
2021/05/22 00:45:04;;;;;;;;;;;;;;;6.71;100.00;95265.97;1279322;23;20330;-61
2021/05/22 00:45:35;;;;;;;;;;;;;;;6.73;100.00;95275.25;1279278;23;19904;-61
2021/05/22 00:46:06;;;;;;;;;;;;;;;6.76;100.00;95290.69;1279292;23;19940;-61
2021/05/22 00:46:36;;;;;;;;;;;;;;;6.75;100.00;95310.31;1279298;23;19904;-61
2021/05/22 00:47:06;;;;;;;;;;;;;;;6.79;100.00;95315.91;1279246;23;19908;-61
2021/05/22 00:47:38;;;;;;;;;;;;;;;6.74;100.00;95316.69;1279140;23;19955;-61
2021/05/22 00:48:08;;;;;;;;;;;;;;;6.71;100.00;95327.06;1279298;23;20024;-61
2021/05/22 00:48:39;;;;;;;;;;;;;;;6.68;100.00;95324.91;1279296;23;19908;-61
2021/05/22 00:49:09;;;;;;;;;;;;;;;6.65;100.00;95322.75;1279203;23;19915;-61
2021/05/22 00:49:40;;;;;;;;;;;;;;;6.69;100.00;95332.59;1279185;23;19911;-61
2021/05/22 00:50:11;;;;;;;;;;;;;;;6.66;100.00;95338.47;1279234;23;19908;-61
2021/05/22 00:50:42;;;;;;;;;;;;;;;6.65;100.00;95342.16;1279308;23;19904;-61
2021/05/22 00:51:13;;;;;;;;;;;;;;;6.63;100.00;95336.31;1279340;23;20357;-61
2021/05/22 00:51:43;;;;;;;;;;;;;;;6.62;100.00;95336.59;1279306;23;19923;-61
2021/05/22 00:52:13;;;;;;;;;;;;;;;6.62;100.00;95332.06;1279065;23;19927;-61
2021/05/22 00:52:43;;;;;;;;;;;;;;;6.59;100.00;95327.25;1279404;23;19931;-61
2021/05/22 00:53:14;;;;;;;;;;;;;;;6.60;100.00;95334.16;1279181;23;19912;-61
2021/05/22 00:53:44;;;;;;;;;;;;;;;6.58;100.00;95335.50;1278873;23;19897;-61
2021/05/22 00:54:14;;;;;;;;;;;;;;;6.61;100.00;95329.69;1278841;23;20318;-61
2021/05/22 00:54:45;;;;;;;;;;;;;;;6.61;100.00;95343.75;1278995;23;19901;-61
2021/05/22 00:55:15;;;;;;;;;;;;;;;6.63;100.00;95346.13;1278880;23;20009;-61
2021/05/22 00:55:45;;;;;;;;;;;;;;;6.62;100.00;95350.66;1278954;23;19896;-61
2021/05/22 00:56:15;;;;;;;;;;;;;;;6.65;100.00;95344.00;1278787;23;20310;-59
2021/05/22 00:56:49;;;;;;;;;;;;;;;6.63;100.00;95338.19;1279327;23;19903;-59
2021/05/22 00:57:19;;;;;;;;;;;;;;;6.61;100.00;95335.78;1279207;23;19900;-60
2021/05/22 00:57:49;;;;;;;;;;;;;;;6.60;100.00;95334.16;1278663;23;19972;-60
2021/05/22 00:58:20;;;;;;;;;;;;;;;6.61;100.00;95330.47;1278861;23;19896;-60
2021/05/22 00:58:50;;;;;;;;;;;;;;;6.59;100.00;95327.25;1278779;23;19903;-60
2021/05/22 00:59:20;;;;;;;;;;;;;;;6.61;100.00;95327.81;1278879;23;19904;-60
2021/05/22 00:59:51;;;;;;;;;;;;;;;6.63;100.00;95330.22;1279129;23;20250;-60
2021/05/22 01:00:40;;;;;;;;;;;;;;;6.62;100.00;95336.59;1278695;23;19919;-60
2021/05/22 01:01:10;;;;;;;;;;;;;;;6.60;100.00;95338.69;1278771;23;20239;-60
2021/05/22 01:01:41;;;;;;;;;;;;;;;6.57;100.00;95336.56;1278872;23;19912;-60
2021/05/22 01:02:11;;;;;;;;;;;;;;;6.60;100.00;95333.38;1278996;23;19908;-60
2021/05/22 01:02:42;;;;;;;;;;;;;;;6.58;100.00;95346.13;1279216;23;19915;-60
2021/05/22 01:03:29;;;;;;;;;;;;;;;6.60;100.00;95359.91;1279204;23;19904;-60
2021/05/22 01:03:59;;;;;;;;;;;;;;;6.60;100.00;95373.19;1279212;23;19915;-60
2021/05/22 01:04:29;;;;;;;;;;;;;;;6.61;100.00;95367.66;1279226;23;19915;-60
2021/05/22 01:05:00;;;;;;;;;;;;;;;6.60;100.00;95371.34;1279348;23;20281;-60
2021/05/22 01:05:30;;;;;;;;;;;;;;;6.62;100.00;95360.47;1279176;23;19909;-60
2021/05/22 01:06:03;;;;;;;;;;;;;;;6.59;100.00;95355.69;1279208;23;19904;-60
2021/05/22 01:06:34;;;;;;;;;;;;;;;6.61;100.00;95353.56;1279096;23;19924;-60
2021/05/22 01:07:04;;;;;;;;;;;;;;;6.59;100.00;95353.81;1279286;23;19931;-60
2021/05/22 01:07:34;;;;;;;;;;;;;;;6.56;100.00;95351.69;1279007;23;20337;-60
2021/05/22 01:08:09;;;;;;;;;;;;;;;6.56;100.00;95361.53;1279185;23;19988;-60
2021/05/22 01:08:42;;;;;;;;;;;;;;;6.57;100.00;95366.56;1279254;23;20318;-60
2021/05/22 01:09:15;;;;;;;;;;;;;;;6.57;100.00;95363.13;1279183;23;19932;-60
2021/05/22 01:09:47;;;;;;;;;;;;;;;6.58;100.00;95370.00;1278909;23;20008;-60
2021/05/22 01:10:17;;;;;;;;;;;;;;;6.61;100.00;95366.84;1272748;23;19987;-60
2021/05/22 01:10:49;;;;;;;;;;;;;;;6.61;100.00;95354.38;1266625;23;19917;-60
2021/05/22 01:11:19;;;;;;;;;;;;;;;6.63;100.00;95354.09;1261152;23;20274;-60
2021/05/22 01:11:50;;;;;;;;;;;;;;;6.63;100.00;95346.13;1266874;23;19916;-60
2021/05/22 01:12:21;;;;;;;;;;;;;;;6.59;100.00;95353.81;1272988;23;20257;-60
2021/05/22 01:12:51;;;;;;;;;;;;;;;6.54;100.00;95351.13;1278788;23;19912;-60
2021/05/22 01:13:21;;;;;;;;;;;;;;;6.54;100.00;95358.31;1278825;23;19931;-60
2021/05/22 01:14:11;;;;;;;;;;;;;;;6.55;100.00;95363.34;1278764;23;20234;-60
2021/05/22 01:15:17;;;;;;;;;;;;;;;6.55;100.00;95360.69;1278890;23;19934;-61
2021/05/22 01:15:48;;;;;;;;;;;;;;;6.53;100.00;95360.16;1255167;23;19996;-61
2021/05/22 01:16:19;;;;;;;;;;;;;;;6.49;100.00;95362.53;1255331;23;19905;-60
2021/05/22 01:16:49;;;;;;;;;;;;;;;6.44;100.00;95345.78;1255228;23;19938;-60
2021/05/22 01:17:20;;;;;;;;;;;;;;;6.42;100.00;95343.41;1255165;23;19906;-60
2021/05/22 01:17:50;;;;;;;;;;;;;;;6.42;100.00;95337.31;1254977;23;19905;-61
2021/05/22 01:18:20;;;;;;;;;;;;;;;6.39;100.00;95335.16;1256600;23;19906;-61
2021/05/22 01:18:51;;;;;;;;;;;;;;;6.38;100.00;95328.25;1279503;23;19909;-60
2021/05/22 01:19:26;;;;;;;;;;;;;;;6.41;100.00;95333.84;1279595;23;19910;-61
2021/05/22 01:20:07;;;;;;;;;;;;;;;6.43;100.00;95318.44;1279554;23;20433;-60
2021/05/22 01:20:38;;;;;;;;;;;;;;;6.42;100.00;95322.16;1273367;23;19956;-60
2021/05/22 01:21:08;;;;;;;;;;;;;;;6.41;100.00;95319.78;1273383;23;19912;-61
2021/05/22 01:21:38;;;;;;;;;;;;;;;6.40;100.00;95326.16;1273209;23;19928;-61
2021/05/22 01:22:09;;;;;;;;;;;;;;;6.38;100.00;95314.97;1273495;23;19911;-61
2021/05/22 01:22:46;;;;;;;;;;;;;;;6.39;100.00;95313.91;1280031;23;19986;-61
2021/05/22 01:23:21;;;;;;;;;;;;;;;6.43;100.00;95320.31;1279197;23;20156;-60
2021/05/22 01:23:53;;;;;;;;;;;;;;;6.42;100.00;95308.09;1278793;23;19904;-60
2021/05/22 01:24:24;;;;;;;;;;;;;;;6.42;100.00;95303.59;1278749;23;19978;-60
2021/05/22 01:25:00;;;;;;;;;;;;;;;6.43;100.00;95301.72;1278786;23;20326;-60
2021/05/22 01:25:37;;;;;;;;;;;;;;;6.45;100.00;95303.09;1278784;23;19908;-60
2021/05/22 01:26:07;;;;;;;;;;;;;;;6.43;100.00;95302.53;1278808;23;19904;-60
2021/05/22 01:26:37;;;;;;;;;;;;;;;6.45;100.00;95308.38;1275363;23;19928;-60
2021/05/22 01:27:08;;;;;;;;;;;;;;;6.45;100.00;95315.56;1278728;23;19904;-61
2021/05/22 01:27:38;;;;;;;;;;;;;;;6.48;100.00;95315.03;1278838;23;19956;-61
2021/05/22 01:28:09;;;;;;;;;;;;;;;6.50;100.00;95328.84;1278607;23;19912;-61
2021/05/22 01:28:39;;;;;;;;;;;;;;;6.51;100.00;95330.44;1278897;23;19975;-61
2021/05/22 01:29:11;;;;;;;;;;;;;;;6.56;100.00;95338.44;1272407;23;19912;-61
2021/05/22 01:29:41;;;;;;;;;;;;;;;6.58;100.00;95354.09;1266584;23;19967;-60
2021/05/22 01:30:11;;;;;;;;;;;;;;;6.58;100.00;95362.84;1266824;23;19931;-61
2021/05/22 01:30:43;;;;;;;;;;;;;;;6.60;100.00;95366.03;1267327;23;19976;-61
2021/05/22 01:31:13;;;;;;;;;;;;;;;6.60;100.00;95368.69;1278849;23;20222;-61
2021/05/22 01:31:43;;;;;;;;;;;;;;;6.61;100.00;95372.97;1279029;23;19904;-61
2021/05/22 01:32:14;;;;;;;;;;;;;;;6.63;100.00;95372.69;1279984;23;19928;-62
2021/05/22 01:32:44;;;;;;;;;;;;;;;6.63;100.00;95378.81;1279979;23;19904;-61
2021/05/22 01:33:15;;;;;;;;;;;;;;;6.63;100.00;95389.41;1278875;23;19958;-61
2021/05/22 01:33:45;;;;;;;;;;;;;;;6.63;100.00;95392.06;1279096;23;19999;-61
2021/05/22 01:34:16;;;;;;;;;;;;;;;6.63;100.00;95397.38;1280541;23;19910;-61
2021/05/22 01:34:46;;;;;;;;;;;;;;;6.63;100.00;95401.91;1280665;23;19966;-62
2021/05/22 01:35:16;;;;;;;;;;;;;;;6.64;100.00;95406.94;1279378;23;19955;-61
2021/05/22 01:35:47;;;;;;;;;;;;;;;6.62;100.00;95413.59;1278796;23;19908;-61
2021/05/22 01:36:17;;;;;;;;;;;;;;;6.63;100.00;95413.31;1278739;23;19904;-61
2021/05/22 01:36:49;;;;;;;;;;;;;;;6.64;100.00;95414.13;1278734;23;19915;-61
2021/05/22 01:37:19;;;;;;;;;;;;;;;6.68;100.00;95416.00;1279175;23;20285;-61
2021/05/22 01:37:49;;;;;;;;;;;;;;;6.64;100.00;95408.81;1279097;23;19911;-61
2021/05/22 01:38:20;;;;;;;;;;;;;;;6.64;100.00;95411.47;1279011;23;19908;-61
2021/05/22 01:38:50;;;;;;;;;;;;;;;6.64;100.00;95409.59;1279259;23;20318;-61
2021/05/22 01:39:20;;;;;;;;;;;;;;;6.64;100.00;95422.06;1279048;23;20325;-61
2021/05/22 01:39:50;;;;;;;;;;;;;;;6.62;100.00;95419.69;1279059;23;19935;-61
2021/05/22 01:40:21;;;;;;;;;;;;;;;6.63;100.00;95428.44;1279036;23;20203;-61
2021/05/22 01:40:51;;;;;;;;;;;;;;;6.66;100.00;95425.28;1279132;23;19904;-61
2021/05/22 01:41:21;;;;;;;;;;;;;;;6.65;100.00;95427.13;1279022;23;19900;-61
2021/05/22 01:41:51;;;;;;;;;;;;;;;6.68;100.00;95421.31;1279120;23;20188;-61
2021/05/22 01:42:22;;;;;;;;;;;;;;;6.66;100.00;95422.63;1279152;23;19935;-61
2021/05/22 01:42:52;;;;;;;;;;;;;;;6.64;100.00;95419.41;1278761;23;19900;-60
2021/05/22 01:43:22;;;;;;;;;;;;;;;6.63;100.00;95418.63;1278754;23;19912;-61
2021/05/22 01:43:54;;;;;;;;;;;;;;;6.63;100.00;95418.63;1278740;23;19901;-61
2021/05/22 01:44:24;;;;;;;;;;;;;;;6.66;100.00;95412.81;1278773;23;19966;-61
2021/05/22 01:44:54;;;;;;;;;;;;;;;6.65;100.00;95408.53;1278825;23;20230;-60
2021/05/22 01:45:28;;;;;;;;;;;;;;;6.66;100.00;95406.69;1278756;23;19900;-60
2021/05/22 01:45:59;;;;;;;;;;;;;;;6.61;100.00;95409.34;1278715;23;19900;-61
2021/05/22 01:46:29;;;;;;;;;;;;;;;6.57;100.00;95413.56;1278744;23;20283;-61
2021/05/22 01:46:59;;;;;;;;;;;;;;;6.56;100.00;95407.44;1278728;23;20330;-60
2021/05/22 01:47:30;;;;;;;;;;;;;;;6.56;100.00;95412.75;1278763;23;19920;-60
2021/05/22 01:48:01;;;;;;;;;;;;;;;6.58;100.00;95404.53;1278477;23;20353;-61
2021/05/22 01:48:31;;;;;;;;;;;;;;;6.53;100.00;95402.66;1279138;23;19901;-61
2021/05/22 01:49:01;;;;;;;;;;;;;;;6.48;100.00;95400.75;1279032;23;19907;-61
2021/05/22 01:49:32;;;;;;;;;;;;;;;6.47;100.00;95403.69;1278702;23;19900;-61
2021/05/22 01:50:02;;;;;;;;;;;;;;;6.46;100.00;95394.13;1278882;23;19967;-61
2021/05/22 01:50:33;;;;;;;;;;;;;;;6.44;100.00;95396.22;1279103;23;19907;-60
2021/05/22 01:51:03;;;;;;;;;;;;;;;6.46;100.00;95399.44;1279121;23;19904;-60
2021/05/22 01:51:35;;;;;;;;;;;;;;;6.50;100.00;95387.25;1279126;23;20298;-60
2021/05/22 01:52:05;;;;;;;;;;;;;;;6.51;100.00;95400.25;1278999;23;19900;-60
2021/05/22 01:52:36;;;;;;;;;;;;;;;6.56;100.00;95402.16;1278692;23;19965;-61
2021/05/22 01:53:07;;;;;;;;;;;;;;;6.57;100.00;95402.94;1278503;23;20270;-61
2021/05/22 01:53:38;;;;;;;;;;;;;;;6.60;100.00;95392.56;1272511;23;19935;-61
2021/05/22 01:54:09;;;;;;;;;;;;;;;6.57;100.00;95401.09;1272612;23;19924;-61
2021/05/22 01:54:39;;;;;;;;;;;;;;;6.56;100.00;95394.19;1266898;23;19990;-61
2021/05/22 01:55:10;;;;;;;;;;;;;;;6.50;100.00;95384.59;1266752;23;20199;-61
2021/05/22 01:55:40;;;;;;;;;;;;;;;6.50;100.00;95392.56;1272517;23;19909;-60
2021/05/22 01:56:11;;;;;;;;;;;;;;;6.54;100.00;95392.81;1272718;23;20338;-61
2021/05/22 01:56:41;;;;;;;;;;;;;;;6.55;100.00;95389.91;1272550;23;19909;-60
2021/05/22 01:57:11;;;;;;;;;;;;;;;6.54;100.00;95376.91;1278744;23;19907;-61
2021/05/22 01:57:42;;;;;;;;;;;;;;;6.56;100.00;95369.50;1278651;23;19915;-61
2021/05/22 01:58:12;;;;;;;;;;;;;;;6.53;100.00;95368.13;1278628;23;19897;-61
2021/05/22 01:58:42;;;;;;;;;;;;;;;6.53;100.00;95370.00;1278670;23;19912;-61
2021/05/22 01:59:12;;;;;;;;;;;;;;;6.44;100.00;95369.69;1278584;23;20291;-60
2021/05/22 01:59:43;;;;;;;;;;;;;;;6.45;100.00;95373.97;1278727;23;19915;-61
2021/05/22 02:00:13;;;;;;;;;;;;;;;6.43;100.00;95368.88;1278731;23;19927;-60
2021/05/22 02:00:45;;;;;;;;;;;;;;;6.40;100.00;95352.69;1278694;23;19904;-61
2021/05/22 02:01:15;;;;;;;;;;;;;;;6.43;100.00;95362.78;1272636;23;20218;-61
2021/05/22 02:01:49;;;;;;;;;;;;;;;6.47;100.00;95364.66;1272929;23;19905;-61
2021/05/22 02:02:19;;;;;;;;;;;;;;;6.50;100.00;95371.31;1278800;23;19970;-61
2021/05/22 02:02:54;;;;;;;;;;;;;;;6.54;100.00;95368.94;1278751;23;20274;-61
2021/05/22 02:03:29;;;;;;;;;;;;;;;6.52;100.00;95374.50;1279146;23;20309;-61
2021/05/22 02:04:01;;;;;;;;;;;;;;;6.53;100.00;95372.66;1278696;23;20299;-61
2021/05/22 02:04:31;;;;;;;;;;;;;;;6.55;100.00;95373.19;1278747;23;19978;-61
2021/05/22 02:05:02;;;;;;;;;;;;;;;6.50;100.00;95377.44;1278737;23;19910;-60
2021/05/22 02:05:32;;;;;;;;;;;;;;;6.50;100.00;95380.09;1278750;23;19958;-61
2021/05/22 02:06:04;;;;;;;;;;;;;;;6.50;100.00;95382.75;1278641;23;19904;-60
2021/05/22 02:06:35;;;;;;;;;;;;;;;6.49;100.00;95390.94;1272811;23;19975;-60
2021/05/22 02:07:05;;;;;;;;;;;;;;;6.48;100.00;95379.53;1278700;23;19904;-60
2021/05/22 02:07:36;;;;;;;;;;;;;;;6.47;100.00;95380.59;1278639;23;20238;-60
2021/05/22 02:08:07;;;;;;;;;;;;;;;6.49;100.00;95364.41;1278515;23;19905;-60
2021/05/22 02:08:38;;;;;;;;;;;;;;;6.49;100.00;95367.84;1278760;23;19900;-60
2021/05/22 02:09:08;;;;;;;;;;;;;;;6.44;100.00;95364.38;1278687;23;19904;-60
2021/05/22 02:09:38;;;;;;;;;;;;;;;6.40;100.00;95382.69;1272783;23;19900;-60
2021/05/22 02:10:09;;;;;;;;;;;;;;;6.37;100.00;95379.75;1278787;23;19904;-60
2021/05/22 02:10:39;;;;;;;;;;;;;;;6.40;100.00;95390.66;1278647;23;19929;-60
2021/05/22 02:11:10;;;;;;;;;;;;;;;6.38;100.00;95389.28;1278723;23;19904;-60
2021/05/22 02:11:41;;;;;;;;;;;;;;;6.38;100.00;95387.44;1278692;23;19986;-60
2021/05/22 02:12:11;;;;;;;;;;;;;;;6.39;100.00;95381.06;1272865;23;20266;-60
2021/05/22 02:12:41;;;;;;;;;;;;;;;6.37;100.00;95377.88;1278643;23;19900;-60
2021/05/22 02:13:12;;;;;;;;;;;;;;;6.37;100.00;95385.06;1278690;23;19987;-60
2021/05/22 02:13:42;;;;;;;;;;;;;;;6.37;100.00;95391.16;1278609;23;19966;-60
2021/05/22 02:14:16;;;;;;;;;;;;;;;6.35;100.00;95390.63;1278784;23;19983;-60
2021/05/22 02:14:46;;;;;;;;;;;;;;;6.40;100.00;95385.34;1278690;23;19911;-60
2021/05/22 02:15:16;;;;;;;;;;;;;;;6.45;100.00;95397.84;1279001;23;19904;-60
2021/05/22 02:15:50;;;;;;;;;;;;;;;6.45;100.00;95389.88;1278959;23;19959;-60
2021/05/22 02:16:23;;;;;;;;;;;;;;;6.44;100.00;95389.06;1278699;23;19978;-60
2021/05/22 02:16:54;;;;;;;;;;;;;;;6.45;100.00;95388.03;1278540;23;20222;-60
2021/05/22 02:17:24;;;;;;;;;;;;;;;6.43;100.00;95391.97;1278729;23;19904;-61
2021/05/22 02:17:54;;;;;;;;;;;;;;;6.45;100.00;95385.38;1278695;23;19958;-61
2021/05/22 02:18:25;;;;;;;;;;;;;;;6.49;100.00;95390.94;1278577;23;19927;-61
2021/05/22 02:18:56;;;;;;;;;;;;;;;6.52;100.00;95385.13;1272542;23;19909;-61
2021/05/22 02:19:27;;;;;;;;;;;;;;;6.48;100.00;95379.53;1272804;23;19905;-61
2021/05/22 02:19:57;;;;;;;;;;;;;;;6.52;100.00;95377.16;1272462;23;19967;-61
2021/05/22 02:20:27;;;;;;;;;;;;;;;6.56;100.00;95380.91;1272728;23;19909;-61
2021/05/22 02:20:58;;;;;;;;;;;;;;;6.54;100.00;95372.38;1278746;23;19951;-61
2021/05/22 02:21:28;;;;;;;;;;;;;;;6.56;100.00;95364.19;1278580;23;20238;-61
2021/05/22 02:22:02;;;;;;;;;;;;;;;6.51;100.00;95368.41;1279042;23;19915;-61
2021/05/22 02:22:32;;;;;;;;;;;;;;;6.55;100.00;95366.00;1278783;23;19900;-61
2021/05/22 02:23:03;;;;;;;;;;;;;;;6.55;100.00;95360.69;1278737;23;19908;-61
2021/05/22 02:23:34;;;;;;;;;;;;;;;6.55;100.00;95370.53;1278771;23;19900;-60
2021/05/22 02:24:04;;;;;;;;;;;;;;;6.56;100.00;95374.81;1278732;23;20377;-60
2021/05/22 02:24:34;;;;;;;;;;;;;;;6.54;100.00;95367.06;1278819;23;19900;-60
2021/05/22 02:25:05;;;;;;;;;;;;;;;6.54;100.00;95376.91;1278360;23;19900;-60
2021/05/22 02:25:35;;;;;;;;;;;;;;;6.59;100.00;95379.56;1272602;23;19901;-60
2021/05/22 02:26:07;;;;;;;;;;;;;;;6.61;100.00;95375.63;1278812;23;19904;-61
2021/05/22 02:26:37;;;;;;;;;;;;;;;6.60;100.00;95371.34;1278682;23;20310;-61
2021/05/22 02:27:07;;;;;;;;;;;;;;;6.60;100.00;95375.84;1278661;23;19901;-61
2021/05/22 02:27:38;;;;;;;;;;;;;;;6.59;100.00;95375.06;1278686;23;19905;-61
2021/05/22 02:28:08;;;;;;;;;;;;;;;6.59;100.00;95377.72;1278731;23;20328;-61
2021/05/22 02:28:39;;;;;;;;;;;;;;;6.59;100.00;95366.28;1278540;23;20104;-61
2021/05/22 02:29:10;;;;;;;;;;;;;;;6.63;100.00;95373.50;1278820;23;20306;-61
2021/05/22 02:29:40;;;;;;;;;;;;;;;6.59;100.00;95375.06;1278682;23;19900;-61
2021/05/22 02:30:11;;;;;;;;;;;;;;;6.60;100.00;95367.88;1278684;23;20329;-61
2021/05/22 02:30:41;;;;;;;;;;;;;;;6.60;100.00;95368.69;1278623;23;20314;-60
2021/05/22 02:31:12;;;;;;;;;;;;;;;6.59;100.00;95369.75;1278748;23;19931;-61
2021/05/22 02:31:42;;;;;;;;;;;;;;;6.63;100.00;95372.69;1278746;23;19927;-61
2021/05/22 02:32:13;;;;;;;;;;;;;;;6.58;100.00;95364.72;1278685;23;19901;-61
2021/05/22 02:32:44;;;;;;;;;;;;;;;6.58;100.00;95365.50;1278732;23;20286;-61
2021/05/22 02:33:14;;;;;;;;;;;;;;;6.50;100.00;95364.16;1278754;23;19907;-60
2021/05/22 02:33:45;;;;;;;;;;;;;;;6.52;100.00;95374.50;1272273;23;19980;-61
2021/05/22 02:34:19;;;;;;;;;;;;;;;6.52;100.00;95382.47;1266617;23;19924;-61
2021/05/22 02:34:52;;;;;;;;;;;;;;;6.49;100.00;95375.81;1267245;23;19901;-61
2021/05/22 02:35:23;;;;;;;;;;;;;;;6.55;100.00;95381.94;1273946;23;20226;-61
2021/05/22 02:35:53;;;;;;;;;;;;;;;6.55;100.00;95383.78;1278608;23;19901;-61
2021/05/22 02:36:23;;;;;;;;;;;;;;;6.55;100.00;95400.53;1278734;23;19900;-60
2021/05/22 02:36:54;;;;;;;;;;;;;;;6.51;100.00;95394.16;1278684;23;19900;-61
2021/05/22 02:37:24;;;;;;;;;;;;;;;6.50;100.00;95385.41;1278757;23;19986;-61
2021/05/22 02:37:55;;;;;;;;;;;;;;;6.48;100.00;95392.00;1278668;23;19900;-61
2021/05/22 02:38:26;;;;;;;;;;;;;;;6.49;100.00;95386.44;1278506;23;19900;-61
2021/05/22 02:38:56;;;;;;;;;;;;;;;6.51;100.00;95387.00;1278641;23;19916;-60
2021/05/22 02:39:26;;;;;;;;;;;;;;;6.50;100.00;95377.44;1278804;23;19900;-61
2021/05/22 02:39:57;;;;;;;;;;;;;;;6.50;100.00;95372.13;1278453;23;20346;-61
2021/05/22 02:40:28;;;;;;;;;;;;;;;6.54;100.00;95374.25;1272503;23;19913;-61
2021/05/22 02:41:00;;;;;;;;;;;;;;;6.56;100.00;95380.91;1272631;23;19904;-61
2021/05/22 02:41:30;;;;;;;;;;;;;;;6.55;100.00;95381.13;1273025;23;19909;-61
2021/05/22 02:42:01;;;;;;;;;;;;;;;6.53;100.00;95378.75;1278611;23;20270;-61